Time;durP1;ratioP1;P1;durP2;ratioP2;P2;SDS_P1;SDS_P2;PMS_P1;PMS_P2;Temp;Humidity;BMP_temperature;BMP_pressure;BME280_temperature;BME280_humidity;BME280_pressure;Samples;Min_cycle;Max_cycle;Signal;HPM_P1;HPM_P2
2022/06/05 00:00:26;;;;;;;8.50;5.20;;;23.20;70.00;;;;;;6231248;28;80352;-67
2022/06/05 00:03:28;;;;;;;7.22;5.35;;;23.20;70.20;;;;;;6219067;28;80617;-66
2022/06/05 00:06:28;;;;;;;6.88;5.18;;;23.20;70.30;;;;;;6232288;28;80643;-67
2022/06/05 00:09:28;;;;;;;5.60;4.68;;;23.20;70.40;;;;;;6230480;28;80255;-67
2022/06/05 00:12:29;;;;;;;6.72;5.22;;;23.20;70.50;;;;;;6231291;28;80649;-67
2022/06/05 00:15:30;;;;;;;7.07;4.85;;;23.20;70.30;;;;;;6227418;28;80430;-67
2022/06/05 00:18:30;;;;;;;6.40;5.03;;;23.10;70.10;;;;;;6231333;28;80718;-67
2022/06/05 00:21:31;;;;;;;6.40;4.90;;;23.20;70.10;;;;;;6227987;28;80109;-67
2022/06/05 00:24:31;;;;;;;6.80;4.97;;;23.10;70.80;;;;;;6231958;28;80916;-67
2022/06/05 00:27:32;;;;;;;6.38;5.00;;;23.10;70.50;;;;;;6231444;28;80315;-67
2022/06/05 00:30:32;;;;;;;7.05;5.30;;;23.20;70.30;;;;;;6213959;28;81605;-67
2022/06/05 00:33:33;;;;;;;6.65;5.03;;;23.10;70.10;;;;;;6231793;28;80461;-67
2022/06/05 00:36:33;;;;;;;7.85;5.28;;;23.10;69.90;;;;;;6213175;28;81800;-67
2022/06/05 00:39:34;;;;;;;7.85;5.28;;;23.10;70.20;;;;;;6223872;28;80490;-66
2022/06/05 00:42:34;;;;;;;7.45;5.15;;;23.20;70.10;;;;;;6229349;28;80752;-67
2022/06/05 00:45:35;;;;;;;7.07;5.35;;;23.20;70.10;;;;;;6229630;28;80429;-67
2022/06/05 00:48:36;;;;;;;6.43;4.65;;;23.20;70.50;;;;;;6221838;28;80393;-67
2022/06/05 00:51:37;;;;;;;7.80;5.72;;;23.10;70.20;;;;;;6231715;28;80761;-66
2022/06/05 00:54:37;;;;;;;7.30;5.28;;;23.20;70.00;;;;;;6225403;28;80663;-66
2022/06/05 00:57:38;;;;;;;11.20;5.38;;;23.10;70.30;;;;;;6230891;28;80095;-66
2022/06/05 01:00:38;;;;;;;7.22;5.50;;;23.10;70.00;;;;;;6231094;28;80590;-66
2022/06/05 01:03:39;;;;;;;6.35;4.82;;;23.10;71.00;;;;;;6228624;28;80842;-66
2022/06/05 01:06:39;;;;;;;7.80;5.22;;;23.10;71.30;;;;;;6229558;28;80588;-66
2022/06/05 01:09:40;;;;;;;6.15;5.05;;;23.10;70.40;;;;;;6228426;28;80415;-65
2022/06/05 01:12:40;;;;;;;7.25;4.60;;;23.10;70.50;;;;;;6228499;28;80591;-66
2022/06/05 01:15:41;;;;;;;6.32;5.30;;;23.10;70.30;;;;;;6225223;28;80335;-66
2022/06/05 01:18:41;;;;;;;5.70;4.63;;;23.10;70.70;;;;;;6226978;28;80689;-66
2022/06/05 01:21:41;;;;;;;6.60;5.03;;;23.10;70.30;;;;;;6231017;28;84205;-66
2022/06/05 01:24:42;;;;;;;6.25;4.75;;;23.10;70.30;;;;;;6232314;28;80892;-67
2022/06/05 01:27:43;;;;;;;7.18;5.03;;;23.10;70.70;;;;;;6234066;28;81048;-67
2022/06/05 01:30:43;;;;;;;6.80;4.90;;;23.10;70.30;;;;;;6226556;28;80284;-66
2022/06/05 01:33:44;;;;;;;6.40;4.60;;;23.10;70.40;;;;;;6230021;28;80449;-67
2022/06/05 01:36:44;;;;;;;5.75;4.65;;;23.10;70.90;;;;;;6234548;28;80422;-66
2022/06/05 01:39:45;;;;;;;7.43;4.40;;;23.10;70.70;;;;;;6233215;28;80335;-66
2022/06/05 01:42:46;;;;;;;6.15;4.70;;;23.10;71.30;;;;;;6231511;28;80523;-67
2022/06/05 01:45:46;;;;;;;5.47;4.57;;;23.10;70.50;;;;;;6234655;28;81260;-67
2022/06/05 01:48:47;;;;;;;7.47;4.45;;;23.10;71.20;;;;;;6235116;28;80050;-67
2022/06/05 01:51:47;;;;;;;5.03;3.90;;;23.10;71.10;;;;;;6234831;28;80951;-67
2022/06/05 01:54:48;;;;;;;5.70;4.60;;;23.10;71.20;;;;;;6234601;28;80264;-67
2022/06/05 01:57:48;;;;;;;5.63;4.30;;;23.10;70.90;;;;;;6233211;28;81886;-67
2022/06/05 02:00:49;;;;;;;5.45;3.97;;;23.10;70.50;;;;;;6230513;28;80523;-67
2022/06/05 02:03:49;;;;;;;5.43;4.32;;;23.10;70.40;;;;;;6232007;28;80708;-67
2022/06/05 02:06:50;;;;;;;6.00;3.72;;;23.10;71.90;;;;;;6231223;28;80500;-67
2022/06/05 02:09:50;;;;;;;4.88;3.90;;;23.10;70.60;;;;;;6229878;28;80807;-67
2022/06/05 02:12:51;;;;;;;6.95;4.47;;;23.10;70.60;;;;;;6226569;28;80264;-66
2022/06/05 02:15:51;;;;;;;5.53;4.53;;;23.10;70.50;;;;;;6214118;28;81498;-66
2022/06/05 02:18:52;;;;;;;5.00;4.30;;;23.10;70.40;;;;;;6224085;28;80425;-66
2022/06/05 02:21:52;;;;;;;5.45;4.47;;;23.10;70.80;;;;;;6217273;28;80407;-66
2022/06/05 02:24:53;;;;;;;6.03;4.60;;;23.10;70.70;;;;;;6223206;28;81804;-66
2022/06/05 02:27:53;;;;;;;6.65;4.45;;;23.10;70.80;;;;;;6234170;28;80338;-66
2022/06/05 02:30:54;;;;;;;4.82;3.90;;;23.00;70.40;;;;;;6218795;28;80760;-66
2022/06/05 02:33:54;;;;;;;5.70;4.38;;;23.10;70.30;;;;;;6224899;28;81356;-66
2022/06/05 02:36:55;;;;;;;5.68;4.32;;;23.00;70.50;;;;;;6223816;28;80498;-66
2022/06/05 02:39:55;;;;;;;4.95;4.30;;;23.00;70.80;;;;;;6226788;28;80425;-66
2022/06/05 02:42:55;;;;;;;4.70;4.18;;;23.00;70.80;;;;;;6218947;28;80355;-67
2022/06/05 02:45:56;;;;;;;4.78;3.70;;;23.00;70.20;;;;;;6231704;28;80989;-66
2022/06/05 02:48:57;;;;;;;5.53;4.38;;;23.00;70.20;;;;;;6230012;28;82169;-66
2022/06/05 02:51:58;;;;;;;5.47;4.53;;;23.00;70.10;;;;;;6229477;28;83640;-66
2022/06/05 02:54:58;;;;;;;4.82;3.83;;;23.00;70.30;;;;;;6230551;28;80468;-66
2022/06/05 02:57:59;;;;;;;10.02;4.35;;;23.00;70.20;;;;;;6219581;28;80355;-67
2022/06/05 03:04:18;;;;;;;4.55;4.05;;;23.00;70.70;;;;;;6229962;28;80371;-66
2022/06/05 03:07:19;;;;;;;5.10;4.07;;;23.00;70.60;;;;;;6230834;28;80503;-66
2022/06/05 03:10:19;;;;;;;4.75;4.15;;;22.90;70.50;;;;;;6227022;28;80367;-66
2022/06/05 03:13:20;;;;;;;4.43;3.75;;;23.00;70.70;;;;;;6232942;28;80360;-67
2022/06/05 03:16:20;;;;;;;4.00;3.58;;;23.00;70.30;;;;;;6220715;28;80741;-66
2022/06/05 03:19:22;;;;;;;5.57;4.45;;;23.00;70.40;;;;;;6231299;28;80326;-66
2022/06/05 03:22:22;;;;;;;4.10;3.70;;;23.00;70.30;;;;;;6230537;28;81293;-66
2022/06/05 03:25:23;;;;;;;4.35;3.85;;;23.00;70.30;;;;;;6216859;28;81157;-66
2022/06/05 03:28:27;;;;;;;7.15;4.63;;;23.00;70.50;;;;;;6232752;28;80819;-67
2022/06/05 03:31:28;;;;;;;5.13;4.00;;;23.00;70.30;;;;;;6226382;28;80485;-66
2022/06/05 03:34:28;;;;;;;6.05;4.43;;;23.00;70.30;;;;;;6227265;28;80411;-66
2022/06/05 03:37:29;;;;;;;4.50;4.00;;;23.00;71.20;;;;;;6229271;28;80360;-66
2022/06/05 03:40:29;;;;;;;5.03;4.45;;;23.00;70.20;;;;;;6233093;28;80395;-66
2022/06/05 03:43:30;;;;;;;6.13;4.65;;;23.00;70.40;;;;;;6232073;28;80439;-66
2022/06/05 03:46:30;;;;;;;6.70;4.07;;;23.00;70.40;;;;;;6232840;28;80438;-66
2022/06/05 03:49:31;;;;;;;5.93;4.75;;;23.00;70.40;;;;;;6222707;28;80482;-66
2022/06/05 03:52:31;;;;;;;6.00;4.88;;;23.00;71.10;;;;;;6231660;28;80369;-66
2022/06/05 03:55:32;;;;;;;4.47;3.90;;;23.00;70.40;;;;;;6226358;28;80908;-66
2022/06/05 03:58:32;;;;;;;4.30;3.72;;;23.00;70.70;;;;;;6232510;28;80395;-66
2022/06/05 04:01:33;;;;;;;6.70;5.38;;;23.00;70.70;;;;;;6224684;28;80456;-66
2022/06/05 04:04:33;;;;;;;5.45;4.50;;;23.00;70.90;;;;;;6224624;28;80336;-66
2022/06/05 04:07:34;;;;;;;7.38;5.18;;;23.00;70.60;;;;;;6231213;28;81384;-66
2022/06/05 04:10:34;;;;;;;6.80;5.32;;;23.00;69.90;;;;;;6228320;28;80418;-65
2022/06/05 04:13:35;;;;;;;6.07;5.00;;;23.00;69.90;;;;;;6227633;28;80050;-65
2022/06/05 04:16:35;;;;;;;7.55;5.32;;;23.00;70.00;;;;;;6226868;28;80838;-66
2022/06/05 04:19:36;;;;;;;7.72;5.13;;;23.00;69.80;;;;;;6232100;28;81244;-66
2022/06/05 04:22:36;;;;;;;6.28;4.70;;;23.00;70.70;;;;;;6227704;28;82074;-66
2022/06/05 04:25:37;;;;;;;5.95;4.60;;;23.00;70.20;;;;;;6217022;28;80371;-66
2022/06/05 04:28:37;;;;;;;8.48;5.10;;;23.00;70.10;;;;;;6211910;28;80905;-66
2022/06/05 04:31:38;;;;;;;5.97;4.45;;;23.00;70.20;;;;;;6211476;28;80371;-66
2022/06/05 04:34:38;;;;;;;6.13;4.78;;;23.00;70.10;;;;;;6209612;28;81511;-67
2022/06/05 04:37:39;;;;;;;6.45;4.80;;;23.00;70.00;;;;;;6212142;28;80487;-66
2022/06/05 04:40:39;;;;;;;6.55;4.80;;;23.00;70.50;;;;;;6196019;28;81009;-66
2022/06/05 04:43:40;;;;;;;7.57;4.82;;;23.00;70.50;;;;;;6213202;28;80521;-66
2022/06/05 04:46:40;;;;;;;5.95;4.55;;;23.10;69.70;;;;;;6210302;28;82549;-66
2022/06/05 04:49:41;;;;;;;6.70;4.75;;;23.10;69.90;;;;;;6202642;28;80370;-66
2022/06/05 04:52:41;;;;;;;5.97;4.25;;;23.00;70.00;;;;;;6214424;28;82378;-65
2022/06/05 04:55:41;;;;;;;6.32;5.10;;;23.10;69.80;;;;;;6209510;28;80412;-66
2022/06/05 04:58:42;;;;;;;5.10;4.30;;;23.10;70.80;;;;;;6227046;28;80676;-66
2022/06/05 05:01:42;;;;;;;4.88;4.18;;;23.10;70.10;;;;;;6214703;28;80470;-66
2022/06/05 05:04:47;;;;;;;4.97;4.15;;;23.10;70.30;;;;;;6216171;28;80531;-66
2022/06/05 05:07:47;;;;;;;5.32;4.35;;;23.10;70.50;;;;;;6194264;28;80640;-66
2022/06/05 05:10:48;;;;;;;5.97;4.10;;;23.10;71.10;;;;;;6217569;28;80428;-66
2022/06/05 05:13:48;;;;;;;5.47;4.35;;;23.10;70.60;;;;;;6207502;28;80453;-66
2022/06/05 05:16:49;;;;;;;5.97;4.45;;;23.10;70.40;;;;;;6229385;28;80511;-66
2022/06/05 05:19:49;;;;;;;4.65;4.20;;;23.10;71.20;;;;;;6204057;28;80540;-67
2022/06/05 05:22:50;;;;;;;4.22;3.67;;;23.10;70.30;;;;;;6202225;28;80435;-66
2022/06/05 05:25:50;;;;;;;6.22;4.70;;;23.10;70.30;;;;;;6205752;28;80579;-66
2022/06/05 05:28:51;;;;;;;6.22;4.88;;;23.10;70.40;;;;;;6202458;28;80392;-66
2022/06/05 05:31:52;;;;;;;6.03;4.30;;;23.10;70.70;;;;;;6199565;28;80408;-66
2022/06/05 05:34:52;;;;;;;6.03;4.63;;;23.10;70.70;;;;;;6206965;28;80449;-67
2022/06/05 05:37:53;;;;;;;5.13;4.15;;;23.10;70.70;;;;;;6205538;28;80362;-65
2022/06/05 05:44:13;;;;;;;6.60;4.72;;;23.10;71.00;;;;;;6205027;28;84998;-66
2022/06/05 05:47:13;;;;;;;7.25;5.03;;;23.10;70.60;;;;;;6205776;28;80331;-66
2022/06/05 05:50:17;;;;;;;6.30;4.60;;;23.10;70.80;;;;;;6201774;28;81407;-66
2022/06/05 05:53:17;;;;;;;6.32;5.00;;;23.10;70.40;;;;;;6197774;28;80606;-67
2022/06/05 05:56:18;;;;;;;6.35;4.53;;;23.10;70.50;;;;;;6194655;28;81014;-67
2022/06/05 05:59:19;;;;;;;6.75;4.45;;;23.10;70.40;;;;;;6187413;28;82258;-68
2022/06/05 06:02:21;;;;;;;6.95;5.18;;;23.10;70.30;;;;;;6199714;28;80941;-67
2022/06/05 06:05:22;;;;;;;8.25;5.32;;;23.10;71.30;;;;;;6203239;28;80348;-66
2022/06/05 06:08:23;;;;;;;7.65;5.32;;;23.10;70.90;;;;;;6207380;28;80480;-67
2022/06/05 06:11:24;;;;;;;6.93;5.45;;;23.10;70.30;;;;;;6194313;28;80738;-66
2022/06/05 06:14:24;;;;;;;8.25;5.65;;;23.10;70.10;;;;;;6192737;28;80527;-68
2022/06/05 06:17:24;;;;;;;10.82;5.50;;;23.10;70.10;;;;;;6191909;28;82301;-68
2022/06/05 06:20:25;;;;;;;8.68;5.75;;;23.10;70.40;;;;;;6189252;28;81735;-68
2022/06/05 06:23:25;;;;;;;7.40;5.28;;;23.10;70.40;;;;;;6187579;28;80858;-67
2022/06/05 06:26:26;;;;;;;9.18;6.38;;;23.20;70.50;;;;;;6187507;28;83059;-67
2022/06/05 06:29:26;;;;;;;9.60;6.07;;;23.20;70.60;;;;;;6199433;28;80665;-67
2022/06/05 06:32:27;;;;;;;8.63;5.97;;;23.20;70.40;;;;;;6202832;28;80247;-68
2022/06/05 06:35:27;;;;;;;10.23;6.03;;;23.20;70.30;;;;;;6202885;28;80942;-70
2022/06/05 06:38:28;;;;;;;9.18;6.35;;;23.20;69.70;;;;;;6206510;28;80446;-68
2022/06/05 06:41:28;;;;;;;8.38;6.13;;;23.20;70.70;;;;;;6205347;28;80547;-66
2022/06/05 06:44:29;;;;;;;9.25;6.72;;;23.30;70.30;;;;;;6206119;28;80563;-67
2022/06/05 06:47:29;;;;;;;7.78;5.90;;;23.30;69.80;;;;;;6201737;28;80518;-69
2022/06/05 06:50:30;;;;;;;8.73;5.90;;;23.30;69.70;;;;;;6193496;28;80480;-68
2022/06/05 06:53:30;;;;;;;8.27;6.25;;;23.30;70.40;;;;;;6191420;28;80906;-68
2022/06/05 06:56:31;;;;;;;10.73;7.28;;;23.30;70.30;;;;;;6206796;28;80488;-67
2022/06/05 06:59:31;;;;;;;9.00;6.50;;;23.40;70.20;;;;;;6196143;28;86482;-66
2022/06/05 07:02:32;;;;;;;8.52;6.05;;;23.40;69.80;;;;;;6198779;28;80467;-68
2022/06/05 07:05:32;;;;;;;9.93;7.03;;;23.40;70.30;;;;;;6199394;28;80749;-66
2022/06/05 07:08:32;;;;;;;9.07;6.47;;;23.40;69.40;;;;;;6205043;28;80382;-67
2022/06/05 07:11:33;;;;;;;12.70;7.07;;;23.40;69.40;;;;;;6199160;28;80654;-69
2022/06/05 07:14:33;;;;;;;9.30;6.85;;;23.40;69.50;;;;;;6199427;28;80924;-68
2022/06/05 07:17:34;;;;;;;10.98;7.00;;;23.40;70.00;;;;;;6198414;28;80369;-69
2022/06/05 07:20:34;;;;;;;10.07;7.20;;;23.40;69.60;;;;;;6195470;28;80087;-68
2022/06/05 07:23:35;;;;;;;12.40;7.53;;;23.40;69.80;;;;;;6204077;28;80700;-68
2022/06/05 07:26:35;;;;;;;9.50;7.38;;;23.40;69.50;;;;;;6226234;28;81009;-67
2022/06/05 07:29:36;;;;;;;10.63;6.60;;;23.40;70.10;;;;;;6233496;28;86411;-67
2022/06/05 07:32:36;;;;;;;8.63;6.32;;;23.40;69.30;;;;;;6207728;28;80243;-67
2022/06/05 07:35:37;;;;;;;10.88;7.03;;;23.40;69.70;;;;;;6227316;28;80256;-68
2022/06/05 07:38:37;;;;;;;10.75;7.57;;;23.40;69.60;;;;;;6232373;28;80989;-68
2022/06/05 07:41:38;;;;;;;11.52;6.85;;;23.50;69.60;;;;;;6231950;28;80202;-67
2022/06/05 07:44:38;;;;;;;9.98;7.35;;;23.50;69.20;;;;;;6230319;28;80289;-69
2022/06/05 07:47:39;;;;;;;10.40;7.38;;;23.50;69.90;;;;;;6223214;28;80622;-71
2022/06/05 07:54:26;;;;;;;10.07;7.05;;;23.50;69.50;;;;;;6229784;28;81124;-68
2022/06/05 07:57:19;;;;;;;9.85;6.70;;;23.50;69.50;;;;;;6226010;28;80664;-69
2022/06/05 08:00:21;;;;;;;11.30;7.47;;;23.50;69.40;;;;;;6229483;28;81124;-69
2022/06/05 08:03:21;;;;;;;8.73;6.28;;;23.50;68.80;;;;;;6223633;28;80531;-65
2022/06/05 08:06:22;;;;;;;9.35;6.63;;;23.50;68.90;;;;;;6228388;28;80745;-66
2022/06/05 08:09:22;;;;;;;10.35;7.03;;;23.50;68.50;;;;;;6229309;28;80420;-75
2022/06/05 08:12:23;;;;;;;8.85;6.80;;;23.50;68.70;;;;;;6228177;28;81333;-76
2022/06/05 08:15:23;;;;;;;8.77;6.65;;;23.50;68.90;;;;;;6229547;28;81419;-71
2022/06/05 08:18:24;;;;;;;8.30;5.90;;;23.60;68.50;;;;;;6226999;28;80526;-69
2022/06/05 08:21:26;;;;;;;9.27;6.82;;;23.50;68.30;;;;;;6231741;28;79979;-68
2022/06/05 08:24:26;;;;;;;11.00;8.18;;;23.50;68.80;;;;;;6227851;28;80376;-71
2022/06/05 08:27:27;;;;;;;14.20;7.93;;;23.50;69.20;;;;;;6225473;28;80418;-69
2022/06/05 08:30:27;;;;;;;13.23;7.90;;;23.60;69.20;;;;;;6219971;28;80119;-69
2022/06/05 08:33:28;;;;;;;13.55;7.50;;;23.60;69.30;;;;;;6232064;28;80749;-71
2022/06/05 08:36:28;;;;;;;17.38;8.15;;;23.60;69.70;;;;;;6214903;28;81566;-71
2022/06/05 08:42:48;;;;;;;12.05;7.95;;;23.60;69.30;;;;;;6227419;28;80703;-68
2022/06/05 08:45:48;;;;;;;13.15;7.15;;;23.60;69.80;;;;;;6227758;28;80853;-70
2022/06/05 08:48:49;;;;;;;16.10;8.13;;;23.60;69.80;;;;;;6220841;28;80930;-75
2022/06/05 08:51:49;;;;;;;16.73;7.47;;;23.70;69.70;;;;;;6222248;28;80527;-68
2022/06/05 08:54:50;;;;;;;11.98;7.70;;;23.70;69.50;;;;;;6212010;28;80510;-68
2022/06/05 08:57:51;;;;;;;18.52;7.10;;;23.60;69.20;;;;;;6233868;28;80721;-68
2022/06/05 09:00:52;;;;;;;14.30;7.93;;;23.60;69.60;;;;;;6231569;28;80510;-68
2022/06/05 09:03:52;;;;;;;13.10;7.78;;;23.70;69.40;;;;;;6218055;28;81094;-69
2022/06/05 09:06:53;;;;;;;11.70;7.32;;;23.70;69.30;;;;;;6231477;28;80373;-68
2022/06/05 09:09:53;;;;;;;14.93;7.38;;;23.70;69.00;;;;;;6228607;28;80492;-68
2022/06/05 09:12:53;;;;;;;13.75;6.85;;;23.70;69.30;;;;;;6222809;28;80631;-64
2022/06/05 09:15:55;;;;;;;15.20;7.47;;;23.70;69.00;;;;;;6225548;28;80404;-71
2022/06/05 09:18:56;;;;;;;9.55;6.80;;;23.70;68.80;;;;;;6227280;28;80981;-71
2022/06/05 09:21:56;;;;;;;8.93;6.93;;;23.80;69.20;;;;;;6231120;28;80812;-70
2022/06/05 09:24:57;;;;;;;8.90;6.35;;;23.80;69.10;;;;;;6222401;28;80794;-71
2022/06/05 09:27:57;;;;;;;13.25;6.82;;;23.90;68.70;;;;;;6234332;28;80921;-70
2022/06/05 09:30:58;;;;;;;9.80;6.45;;;23.90;68.20;;;;;;6226002;28;80004;-70
2022/06/05 09:33:58;;;;;;;9.55;6.03;;;24.00;68.40;;;;;;6232854;28;81065;-70
2022/06/05 09:36:59;;;;;;;7.18;5.28;;;24.00;67.70;;;;;;6228265;28;80737;-70
2022/06/05 09:39:59;;;;;;;9.82;5.93;;;24.10;67.40;;;;;;6228343;28;80692;-70
2022/06/05 09:43:01;;;;;;;9.98;5.78;;;24.10;67.10;;;;;;6224212;28;80138;-69
2022/06/05 09:46:02;;;;;;;6.75;5.28;;;24.20;67.00;;;;;;6203128;28;80559;-70
2022/06/05 09:49:02;;;;;;;10.57;5.82;;;24.20;66.80;;;;;;6231683;28;80512;-70
2022/06/05 09:52:03;;;;;;;6.40;5.30;;;24.20;66.60;;;;;;6232908;28;80324;-69
2022/06/05 09:55:03;;;;;;;7.32;4.90;;;24.30;66.90;;;;;;6227638;28;80311;-70
2022/06/05 10:01:23;;;;;;;7.55;4.93;;;24.20;66.30;;;;;;6217486;28;80537;-69
2022/06/05 10:04:23;;;;;;;7.00;4.68;;;24.20;66.20;;;;;;6231219;28;80866;-70
2022/06/05 10:07:24;;;;;;;7.10;4.60;;;24.20;66.00;;;;;;6228105;28;81268;-68
2022/06/05 10:10:25;;;;;;;5.78;4.30;;;24.20;66.50;;;;;;6227217;28;80540;-69
2022/06/05 10:13:26;;;;;;;6.72;4.82;;;24.10;66.30;;;;;;6220571;28;80647;-69
2022/06/05 10:16:27;;;;;;;5.22;4.07;;;24.20;66.60;;;;;;6220912;28;80245;-70
2022/06/05 10:19:29;;;;;;;6.35;3.65;;;24.10;66.00;;;;;;6223898;28;81051;-69
2022/06/05 10:22:29;;;;;;;7.80;4.00;;;24.10;65.90;;;;;;6224901;28;80773;-69
2022/06/05 10:25:29;;;;;;;9.75;4.28;;;24.10;65.50;;;;;;6192075;28;1141657;-70
2022/06/05 10:28:30;;;;;;;5.20;4.45;;;24.10;65.90;;;;;;6210576;28;80469;-69
2022/06/05 10:31:32;;;;;;;7.72;4.70;;;24.10;65.80;;;;;;6231972;28;80991;-70
2022/06/05 10:34:34;;;;;;;14.73;7.22;;;24.20;65.80;;;;;;6233661;28;80563;-67
2022/06/05 10:37:34;;;;;;;8.48;5.18;;;24.20;65.20;;;;;;6228192;28;80934;-67
2022/06/05 10:40:35;;;;;;;10.07;5.82;;;24.10;65.40;;;;;;6226470;28;80139;-69
2022/06/05 10:43:35;;;;;;;12.05;5.88;;;24.20;64.70;;;;;;6227794;28;80489;-69
2022/06/05 10:46:36;;;;;;;9.93;5.93;;;24.20;63.90;;;;;;6231615;28;80399;-69
2022/06/05 10:49:36;;;;;;;8.82;5.25;;;24.20;63.20;;;;;;6231862;28;81018;-67
2022/06/05 10:52:37;;;;;;;5.78;4.65;;;24.20;62.50;;;;;;6225792;28;80350;-67
2022/06/05 10:55:37;;;;;;;7.82;4.97;;;24.20;61.80;;;;;;6224620;28;80013;-68
2022/06/05 10:58:38;;;;;;;6.35;4.15;;;24.20;61.50;;;;;;6229430;28;80302;-68
2022/06/05 11:01:38;;;;;;;6.57;4.57;;;24.20;61.10;;;;;;6226875;28;80265;-68
2022/06/05 11:04:39;;;;;;;8.73;4.47;;;24.20;60.00;;;;;;6227031;28;80919;-69
2022/06/05 11:07:39;;;;;;;6.55;4.18;;;24.20;59.10;;;;;;6228242;28;80346;-70
2022/06/05 11:13:59;;;;;;;29.70;11.98;;;24.10;57.20;;;;;;6224564;28;80384;-70
2022/06/05 11:17:00;;;;;;;46.42;17.10;;;24.10;56.90;;;;;;6224924;28;83594;-70
2022/06/05 11:20:00;;;;;;;59.70;23.65;;;24.10;56.50;;;;;;6206816;28;83209;-68
2022/06/05 11:23:01;;;;;;;69.38;26.25;;;24.20;54.30;;;;;;6223453;28;83106;-71
2022/06/05 11:26:04;;;;;;;70.65;26.88;;;24.20;55.10;;;;;;6227988;28;83738;-69
2022/06/05 11:29:04;;;;;;;67.38;25.45;;;24.10;55.40;;;;;;6228941;28;83306;-70
2022/06/05 11:32:05;;;;;;;47.95;19.83;;;24.20;54.30;;;;;;6222847;28;83532;-70
2022/06/05 11:35:05;;;;;;;47.42;19.23;;;24.30;55.40;;;;;;6227796;28;83590;-70
2022/06/05 11:38:06;;;;;;;58.08;22.83;;;24.30;55.40;;;;;;6224539;28;87472;-70
2022/06/05 11:41:06;;;;;;;52.53;20.77;;;24.20;54.80;;;;;;6225874;28;83122;-69
2022/06/05 11:44:07;;;;;;;77.53;29.63;;;24.20;54.70;;;;;;6209576;28;82852;-70
2022/06/05 11:47:08;;;;;;;56.67;22.08;;;24.30;54.60;;;;;;6213666;28;83036;-70
2022/06/05 11:50:08;;;;;;;33.25;14.80;;;24.30;53.70;;;;;;6227320;28;83103;-71
2022/06/05 11:53:09;;;;;;;35.65;16.48;;;24.30;53.20;;;;;;6222074;28;83379;-70
2022/06/05 11:56:09;;;;;;;33.00;12.68;;;24.30;53.50;;;;;;6221601;28;83167;-70
2022/06/05 11:59:10;;;;;;;36.67;13.93;;;24.30;53.20;;;;;;6221586;28;83590;-70
2022/06/05 12:02:10;;;;;;;23.73;11.07;;;24.30;53.70;;;;;;6229160;28;83913;-71
2022/06/05 12:05:11;;;;;;;14.13;8.07;;;24.30;53.40;;;;;;6225591;28;84595;-68
2022/06/05 12:08:11;;;;;;;21.90;10.07;;;24.30;53.00;;;;;;6232456;28;82993;-68
2022/06/05 12:11:12;;;;;;;26.83;13.20;;;24.30;53.50;;;;;;6220605;28;83069;-70
2022/06/05 12:14:12;;;;;;;29.98;13.48;;;24.30;54.10;;;;;;6228880;28;84219;-69
2022/06/05 12:17:13;;;;;;;19.52;9.60;;;24.30;53.80;;;;;;6222681;28;83343;-71
2022/06/05 12:20:13;;;;;;;19.15;8.95;;;24.30;53.90;;;;;;6226298;28;82996;-71
2022/06/05 12:23:14;;;;;;;13.77;6.50;;;24.30;54.10;;;;;;6225762;28;80475;-68
2022/06/05 12:26:14;;;;;;;7.97;5.03;;;24.30;54.30;;;;;;6209709;28;83032;-70
2022/06/05 12:29:15;;;;;;;8.93;5.60;;;24.30;54.10;;;;;;6212257;28;80200;-68
2022/06/05 12:32:15;;;;;;;5.60;4.68;;;24.30;54.40;;;;;;6215844;28;80503;-72
2022/06/05 12:35:16;;;;;;;5.85;4.18;;;24.30;54.30;;;;;;6225625;28;80633;-68
2022/06/05 12:38:16;;;;;;;7.20;4.25;;;24.30;54.10;;;;;;6220067;28;81166;-70
2022/06/05 12:41:17;;;;;;;6.88;4.00;;;24.30;54.20;;;;;;6222515;28;80356;-67
2022/06/05 12:44:17;;;;;;;6.47;3.75;;;24.30;54.80;;;;;;6225862;28;80312;-69
2022/06/05 12:47:18;;;;;;;5.05;3.30;;;24.30;54.60;;;;;;6223210;28;80272;-70
2022/06/05 12:50:18;;;;;;;5.47;3.20;;;24.40;53.20;;;;;;6231222;28;80572;-70
2022/06/05 12:53:19;;;;;;;3.88;3.28;;;24.40;53.60;;;;;;6212205;28;80604;-69
2022/06/05 12:56:19;;;;;;;5.13;3.65;;;24.50;52.20;;;;;;6213621;28;80331;-69
2022/06/05 12:59:21;;;;;;;4.28;3.00;;;24.50;51.90;;;;;;6212395;28;81183;-69
2022/06/05 13:02:21;;;;;;;3.63;3.33;;;24.60;51.10;;;;;;6220826;28;81412;-70
2022/06/05 13:05:22;;;;;;;3.47;2.97;;;24.60;51.10;;;;;;6212560;28;80330;-70
2022/06/05 13:08:24;;;;;;;5.10;3.50;;;24.70;51.60;;;;;;6212175;28;80593;-69
2022/06/05 13:11:25;;;;;;;4.03;2.88;;;24.70;50.90;;;;;;6229753;28;80471;-69
2022/06/05 13:14:26;;;;;;;3.80;2.92;;;24.70;50.50;;;;;;6230765;28;80432;-68
2022/06/05 13:17:26;;;;;;;5.07;3.90;;;24.80;50.20;;;;;;6225681;28;80959;-67
2022/06/05 13:20:27;;;;;;;6.90;3.15;;;24.90;50.70;;;;;;6229976;28;80417;-63
2022/06/05 13:23:27;;;;;;;5.13;4.07;;;24.80;50.20;;;;;;6223882;28;80877;-63
2022/06/05 13:26:29;;;;;;;17.25;3.45;;;24.90;49.80;;;;;;6235530;28;80258;-68
2022/06/05 13:29:30;;;;;;;5.65;3.20;;;24.80;48.20;;;;;;6233793;28;80265;-67
2022/06/05 13:32:31;;;;;;;3.05;2.75;;;24.80;48.60;;;;;;6221197;28;80743;-67
2022/06/05 13:35:31;;;;;;;6.07;2.97;;;24.70;48.30;;;;;;6218969;28;81433;-67
2022/06/05 13:38:32;;;;;;;4.47;3.53;;;24.80;49.10;;;;;;6204407;28;81489;-66
2022/06/05 13:41:32;;;;;;;8.65;3.10;;;24.70;49.00;;;;;;6207726;28;80482;-67
2022/06/05 13:44:33;;;;;;;6.00;3.22;;;24.70;48.70;;;;;;6226285;28;80414;-67
2022/06/05 13:47:33;;;;;;;3.15;2.72;;;24.60;48.60;;;;;;6224923;28;82219;-69
2022/06/05 13:50:34;;;;;;;6.55;2.95;;;24.50;48.10;;;;;;6234733;28;81762;-68
2022/06/05 13:53:34;;;;;;;5.68;3.10;;;24.60;48.90;;;;;;6217906;28;80274;-68
2022/06/05 13:56:35;;;;;;;8.23;3.28;;;24.60;48.70;;;;;;6232837;28;80383;-67
2022/06/05 13:59:35;;;;;;;3.58;3.03;;;24.60;48.10;;;;;;6214760;28;81002;-67
2022/06/05 14:02:36;;;;;;;6.70;2.80;;;24.60;48.60;;;;;;6213265;28;81493;-68
2022/06/05 14:05:36;;;;;;;3.00;2.70;;;24.60;47.00;;;;;;6213204;28;81123;-66
2022/06/05 14:08:38;;;;;;;3.60;3.00;;;24.50;46.20;;;;;;6225261;28;80787;-67
2022/06/05 14:11:39;;;;;;;3.42;3.13;;;24.50;46.60;;;;;;6234389;28;80793;-67
2022/06/05 14:14:39;;;;;;;7.65;3.40;;;24.40;46.40;;;;;;6225802;28;80577;-66
2022/06/05 14:17:40;;;;;;;6.75;3.10;;;24.50;47.50;;;;;;6216727;28;80397;-66
2022/06/05 14:20:41;;;;;;;6.13;2.95;;;24.30;47.30;;;;;;6220950;28;80379;-66
2022/06/05 14:23:41;;;;;;;5.05;2.70;;;24.30;48.10;;;;;;6227045;28;81721;-66
2022/06/05 14:26:42;;;;;;;5.10;3.13;;;24.30;47.60;;;;;;6233637;28;83631;-67
2022/06/05 14:29:42;;;;;;;4.90;3.30;;;24.30;47.80;;;;;;6229411;28;80847;-67
2022/06/05 14:32:43;;;;;;;11.27;3.30;;;24.30;48.30;;;;;;6222177;28;80506;-68
2022/06/05 14:35:43;;;;;;;6.72;3.90;;;24.30;47.80;;;;;;6202407;28;80505;-67
2022/06/05 14:38:44;;;;;;;3.20;2.90;;;24.30;48.60;;;;;;6214304;28;80265;-67
2022/06/05 14:41:45;;;;;;;6.78;3.08;;;24.30;47.60;;;;;;6219837;28;80804;-68
2022/06/05 14:44:45;;;;;;;4.57;2.63;;;24.30;46.80;;;;;;6220895;28;80529;-68
2022/06/05 14:47:46;;;;;;;3.40;2.80;;;24.30;46.40;;;;;;6205866;28;81989;-68
2022/06/05 14:50:47;;;;;;;2.53;2.33;;;24.30;46.10;;;;;;6213356;28;80322;-67
2022/06/05 14:53:47;;;;;;;2.67;2.42;;;24.30;46.20;;;;;;6215146;28;80423;-67
2022/06/05 15:00:07;;;;;;;3.33;2.40;;;24.30;46.40;;;;;;6216625;28;80905;-68
2022/06/05 15:03:08;;;;;;;2.70;2.50;;;24.30;45.70;;;;;;6222010;28;81087;-68
2022/06/05 15:06:09;;;;;;;3.88;2.60;;;24.20;45.90;;;;;;6219246;28;82229;-68
2022/06/05 15:09:09;;;;;;;3.47;2.63;;;24.20;45.30;;;;;;6216485;28;81763;-68
2022/06/05 15:12:10;;;;;;;3.53;2.10;;;24.20;45.00;;;;;;6214307;28;80661;-68
2022/06/05 15:15:11;;;;;;;4.28;3.05;;;24.20;45.20;;;;;;6226953;28;80594;-68
2022/06/05 15:18:11;;;;;;;3.13;2.60;;;24.10;45.20;;;;;;6225400;28;81146;-68
2022/06/05 15:21:12;;;;;;;3.05;2.75;;;24.10;45.70;;;;;;6227603;28;80336;-67
2022/06/05 15:24:13;;;;;;;4.20;2.70;;;24.20;45.70;;;;;;6221810;28;81281;-68
2022/06/05 15:27:15;;;;;;;5.03;2.83;;;24.10;46.30;;;;;;6221460;28;80449;-67
2022/06/05 15:30:15;;;;;;;2.63;2.42;;;24.20;45.60;;;;;;6202642;28;80466;-67
2022/06/05 15:33:17;;;;;;;4.03;3.03;;;24.20;46.10;;;;;;6199821;28;80705;-71
2022/06/05 15:36:17;;;;;;;4.38;3.03;;;24.20;46.00;;;;;;6220448;28;80799;-67
2022/06/05 15:39:18;;;;;;;5.47;2.97;;;24.20;44.80;;;;;;6231924;28;80221;-67
2022/06/05 15:42:18;;;;;;;3.65;3.17;;;24.20;45.60;;;;;;6218182;28;81324;-66
2022/06/05 15:45:19;;;;;;;3.28;2.47;;;24.30;46.00;;;;;;6223827;28;80561;-66
2022/06/05 15:48:19;;;;;;;4.55;2.95;;;24.20;45.70;;;;;;6214535;28;81898;-71
2022/06/05 15:51:20;;;;;;;3.97;2.97;;;24.20;46.50;;;;;;6217112;28;80264;-70
2022/06/05 15:54:20;;;;;;;4.78;2.95;;;24.20;47.10;;;;;;6209281;28;80852;-71
2022/06/05 16:00:40;;;;;;;4.13;2.80;;;24.20;47.50;;;;;;6218410;28;80133;-68